CYVRCYCD

Guest
Details From CYVR - Vancouver Intl
To CYCD - Nanaimo
Flight Number -
Tags Routegen Generated
Created
Modified
Stats Distance 35 nm / 64 km
Max Altitude 100 ft / 30 m
Waypoints 5
Social Downloads 3
Likes 0
Share VATSIM

Download

Looking for another format? Having issues loading an existing format? Contact us
Advertisement - Login to hide

Notes

Departing runway 27 CYVR. Arriving runway 18 CYCD.

Route

CYVR +49.20_-123.32 +49.20_-123.59 +49.19_-123.87 CYCD

ID Type Via Altitude Latitude Longitude Leg Dist Tot Dist Heading (true) Name
O CYVR APT - 0 ft / 0 m 49.19011˚ -123.20795˚ - 0 nm - -
+49.20_-123.32 DME - 100 ft / 30 m 49.20259˚ -123.31703˚ 4 nm 4 nm 280° / 280° -
+49.20_-123.59 DME - 100 ft / 30 m 49.19640˚ -123.59219˚ 10 nm 15 nm 268° / 268° -
+49.19_-123.87 DME - 100 ft / 30 m 49.19021˚ -123.86736˚ 10 nm 25 nm 268° / 268° -
O CYCD APT - 0 ft / 0 m 49.04549˚ -123.87025˚ 8 nm 34 nm 181° / 181° Nanaimo

Altitude Profile

Advertisement - Login to hide

CYVR

Details ICAO CYVR (YVR)
Name Vancouver Intl
Region Canada
Timezone America/Vancouver (UTC-7.0)
Stats Elevation 14 ft / 4 m (AMSL)
Location 49.192331° -123.187993°
Runways 4
Magnetic Variation 16.198° E

METAR

CYVR 232300Z 22007KT 30SM FEW045 20/17 A2974 RMK CF1 CF TR SLP074 DENSITY ALT 800FT

Decode

TAF

TAF CYVR 232038Z 2321/2424 23006KT P6SM FEW150 FM240300 12008KT P6SM SCT100 FM241200 10012KT P6SM SCT015 FM242100 14012KT P6SM SKC RMK NXT FCST BY 240000Z

Decode

Departure Runways

ID Width Length Bearing (true) Bearing (mag) Surface Threshold Offset Overrun Length
08 75 ft / 23 m 3,497 ft / 1,066 m 100.01° 83.81° Concrete 0 ft / 0 m 0 ft / 0 m
08L 200 ft / 61 m 9,910 ft / 3,021 m 99.80° 83.60° Concrete 0 ft / 0 m 0 ft / 0 m
08R 200 ft / 61 m 11,491 ft / 3,502 m 99.94° 83.74° Asphalt 0 ft / 0 m 0 ft / 0 m
12 200 ft / 61 m 7,291 ft / 2,222 m 141.91° 125.71° Asphalt 0 ft / 0 m 0 ft / 0 m
26 75 ft / 23 m 3,497 ft / 1,066 m 280.02° 263.82° Concrete 0 ft / 0 m 0 ft / 0 m
26L 200 ft / 61 m 11,491 ft / 3,502 m 279.97° 263.77° Asphalt 0 ft / 0 m 0 ft / 0 m
26R 200 ft / 61 m 9,910 ft / 3,021 m 279.83° 263.63° Concrete 0 ft / 0 m 0 ft / 0 m
30 200 ft / 61 m 7,291 ft / 2,222 m 321.93° 305.73° Asphalt 0 ft / 0 m 0 ft / 0 m

CYCD

Details ICAO CYCD (YCD)
Name Nanaimo
Region Canada
Timezone America/Vancouver (UTC-7.0)
Stats Elevation 93 ft / 28 m (AMSL)
Location 49.052367° -123.870111°
Runways 1
Magnetic Variation 16.274° E

METAR

CYCD 232300Z 08006KT 30SM FEW050 FEW120 26/11 A2973 RMK CU1ACC1 SLP070 DENSITY ALT 1600FT

Decode

TAF

TAF CYCD 231738Z 2318/2404 VRB02KT P6SM SKC BECMG 2318/2320 07006KT RMK NXT FCST BY 240000Z

Decode

Destination Runways

ID Width Length Bearing (true) Bearing (mag) Surface Threshold Offset Overrun Length
16 200 ft / 61 m 5,018 ft / 1,529 m 180.75° 164.48° Asphalt 0 ft / 0 m 0 ft / 0 m
34 200 ft / 61 m 5,018 ft / 1,529 m 0.75° 344.48° Asphalt 1,001 ft / 305 m 0 ft / 0 m

Popular Alternatives